KSBY/SBY METAR and TAF weather

Enter ICAO airport designator
Station Type Date Time Source
KSBY METAR 2018/12/11 17:54 UTC NOAA

KSBY 111754Z 31008KT 10SM CLR 06/M02 A3006 RMK AO2 SLP182 60000 T00611022 10061 21033 58036


Station Type Date Time Source
KSBY Decoded METAR 2018/12/11 17:54 UTC NOAA

SALISBURY-WICOMICO CTY REG, MD, United States (KSBY) 38-20N 075-30W 19M
Dec 11, 2018 - 12:54 PM EST / 2018.12.11 1754 UTC
Wind: from the NW (310 degrees) at 9 MPH (8 KT):0
Visibility: 10 mile(s):0
Sky conditions: clear
Temperature: 43.0 F (6.1 C)
Dew Point: 28.0 F (-2.2 C)
Relative Humidity: 55%
Pressure (altimeter): 30.06 in. Hg (1017 hPa)
Pressure tendency: 0.11 inches (3.6 hPa) lower than three hours ago
ob: KSBY 111754Z 31008KT 10SM CLR 06/M02 A3006 RMK AO2 SLP182 60000 T00611022 10061 21033 58036
cycle: 18

Station Type Date Time Source
KSBY TAF 2018/12/11 18:45 UTC NOAA

TAF KSBY 111743Z 1118/1218 32007KT P6SM SKC
FM112100 26005KT P6SM SKC


Example: see airport list